Terminal Aerodrome Forecast
Issued by NWS Lake Charles, LA

Home | Current Version | Previous Version | Text Only | Print | Product List | Glossary On
Versions: 1 2 3 4 5 6 7 8 9 10 11 12 13 14 15 16
759
FTUS44 KLCH 211721
TAFARA
TAF
KARA 211721Z 2118/2218 15007KT P6SM BKN040
     FM212000 16006KT P6SM VCTS BKN035CB
      TEMPO 2123/2203 3SM TSRA BKN025CB
     FM220500 VRB03KT P6SM BKN250=

USA.gov is the U.S. government's official web portal to all federal, state and local government web resources and services.